sensor_id;sensor_type;location;lat;lon;timestamp;pressure;altitude;pressure_sealevel;temperature;humidity
65758;BME280;52495;52.208;5.158;2023-05-24T00:02:19;102431.50;;;10.34;76.78
65758;BME280;52495;52.208;5.158;2023-05-24T00:04:48;102432.28;;;10.27;76.57
65758;BME280;52495;52.208;5.158;2023-05-24T00:07:15;102433.16;;;10.26;76.81
65758;BME280;52495;52.208;5.158;2023-05-24T00:09:41;102425.34;;;10.21;77.12
65758;BME280;52495;52.208;5.158;2023-05-24T00:12:08;102429.66;;;10.21;76.21
65758;BME280;52495;52.208;5.158;2023-05-24T00:14:36;102428.75;;;10.14;76.17
65758;BME280;52495;52.208;5.158;2023-05-24T00:17:03;102420.94;;;10.06;77.21
65758;BME280;52495;52.208;5.158;2023-05-24T00:19:30;102426.00;;;10.00;77.33
65758;BME280;52495;52.208;5.158;2023-05-24T00:21:57;102421.69;;;9.97;77.43
65758;BME280;52495;52.208;5.158;2023-05-24T00:24:24;102419.03;;;9.90;78.50
65758;BME280;52495;52.208;5.158;2023-05-24T00:26:50;102424.88;;;9.75;78.36
65758;BME280;52495;52.208;5.158;2023-05-24T00:29:17;102429.13;;;9.71;78.95
65758;BME280;52495;52.208;5.158;2023-05-24T00:31:45;102429.03;;;9.65;79.58
65758;BME280;52495;52.208;5.158;2023-05-24T00:34:12;102426.50;;;9.68;79.48
65758;BME280;52495;52.208;5.158;2023-05-24T00:36:39;102429.97;;;9.70;79.39
65758;BME280;52495;52.208;5.158;2023-05-24T00:39:07;102419.66;;;9.71;79.26
65758;BME280;52495;52.208;5.158;2023-05-24T00:41:34;102430.03;;;9.76;78.73
65758;BME280;52495;52.208;5.158;2023-05-24T00:44:01;102423.13;;;9.75;78.29
65758;BME280;52495;52.208;5.158;2023-05-24T00:46:29;102424.03;;;9.76;77.58
65758;BME280;52495;52.208;5.158;2023-05-24T00:48:59;102415.34;;;9.70;77.01
65758;BME280;52495;52.208;5.158;2023-05-24T00:51:26;102408.41;;;9.63;77.06
65758;BME280;52495;52.208;5.158;2023-05-24T00:53:53;102414.38;;;9.61;77.78
65758;BME280;52495;52.208;5.158;2023-05-24T00:56:20;102410.81;;;9.48;77.83
65758;BME280;52495;52.208;5.158;2023-05-24T00:58:47;102412.44;;;9.43;78.39
65758;BME280;52495;52.208;5.158;2023-05-24T01:01:15;102406.41;;;9.40;79.31
65758;BME280;52495;52.208;5.158;2023-05-24T01:03:43;102414.19;;;9.44;78.47
65758;BME280;52495;52.208;5.158;2023-05-24T01:06:12;102412.50;;;9.46;79.07
65758;BME280;52495;52.208;5.158;2023-05-24T01:08:47;102415.81;;;9.38;78.76
65758;BME280;52495;52.208;5.158;2023-05-24T01:11:27;102409.81;;;9.38;79.07
65758;BME280;52495;52.208;5.158;2023-05-24T01:14:04;102420.06;;;9.35;78.12
65758;BME280;52495;52.208;5.158;2023-05-24T01:16:40;102410.47;;;9.24;78.93
65758;BME280;52495;52.208;5.158;2023-05-24T01:22:23;102413.88;;;9.20;79.10
65758;BME280;52495;52.208;5.158;2023-05-24T01:25:00;102414.72;;;9.19;79.45
65758;BME280;52495;52.208;5.158;2023-05-24T01:27:31;102412.94;;;9.17;79.96
65758;BME280;52495;52.208;5.158;2023-05-24T01:29:59;102417.97;;;9.07;80.63
65758;BME280;52495;52.208;5.158;2023-05-24T01:32:27;102417.13;;;9.10;80.49
65758;BME280;52495;52.208;5.158;2023-05-24T01:34:54;102414.59;;;9.11;80.13
65758;BME280;52495;52.208;5.158;2023-05-24T01:37:21;102427.44;;;9.10;80.13
65758;BME280;52495;52.208;5.158;2023-05-24T01:39:48;102424.81;;;9.07;79.78
65758;BME280;52495;52.208;5.158;2023-05-24T01:42:23;102423.06;;;9.03;79.71
65758;BME280;52495;52.208;5.158;2023-05-24T01:44:57;102420.41;;;8.98;80.18
65758;BME280;52495;52.208;5.158;2023-05-24T01:47:33;102420.34;;;8.93;80.73
65758;BME280;52495;52.208;5.158;2023-05-24T01:50:09;102416.97;;;8.98;81.03
65758;BME280;52495;52.208;5.158;2023-05-24T01:52:43;102416.97;;;8.99;80.77
65758;BME280;52495;52.208;5.158;2023-05-24T01:55:12;102416.09;;;8.97;80.27
65758;BME280;52495;52.208;5.158;2023-05-24T01:57:40;102406.59;;;8.93;80.21
65758;BME280;52495;52.208;5.158;2023-05-24T02:00:13;102403.91;;;8.85;80.27
65758;BME280;52495;52.208;5.158;2023-05-24T02:02:40;102405.53;;;8.80;80.22
65758;BME280;52495;52.208;5.158;2023-05-24T02:05:08;102408.91;;;8.74;81.47
65758;BME280;52495;52.208;5.158;2023-05-24T02:07:35;102402.88;;;8.74;80.98
65758;BME280;52495;52.208;5.158;2023-05-24T02:10:02;102402.06;;;8.78;80.96
65758;BME280;52495;52.208;5.158;2023-05-24T02:12:29;102394.28;;;8.75;81.33
65758;BME280;52495;52.208;5.158;2023-05-24T02:14:56;102399.44;;;8.75;81.41
65758;BME280;52495;52.208;5.158;2023-05-24T02:17:24;102393.50;;;8.77;81.39
65758;BME280;52495;52.208;5.158;2023-05-24T02:19:51;102393.50;;;8.77;80.46
65758;BME280;52495;52.208;5.158;2023-05-24T02:22:18;102394.34;;;8.76;80.54
65758;BME280;52495;52.208;5.158;2023-05-24T02:24:46;102398.50;;;8.68;80.93
65758;BME280;52495;52.208;5.158;2023-05-24T02:27:13;102405.25;;;8.60;81.30
65758;BME280;52495;52.208;5.158;2023-05-24T02:29:40;102407.72;;;8.55;81.90
65758;BME280;52495;52.208;5.158;2023-05-24T02:32:07;102400.81;;;8.54;81.68
65758;BME280;52495;52.208;5.158;2023-05-24T02:34:35;102409.50;;;8.59;81.41
65758;BME280;52495;52.208;5.158;2023-05-24T02:37:03;102398.41;;;8.62;80.99
65758;BME280;52495;52.208;5.158;2023-05-24T02:39:30;102404.41;;;8.62;80.70
65758;BME280;52495;52.208;5.158;2023-05-24T02:41:57;102400.09;;;8.61;80.40
65758;BME280;52495;52.208;5.158;2023-05-24T02:44:24;102401.72;;;8.56;79.68
65758;BME280;52495;52.208;5.158;2023-05-24T02:46:51;102404.97;;;8.46;79.63
65758;BME280;52495;52.208;5.158;2023-05-24T02:49:18;102400.53;;;8.39;80.12
65758;BME280;52495;52.208;5.158;2023-05-24T02:51:46;102405.66;;;8.35;80.31
65758;BME280;52495;52.208;5.158;2023-05-24T02:54:12;102400.47;;;8.34;80.88
65758;BME280;52495;52.208;5.158;2023-05-24T02:56:42;102408.19;;;8.32;80.95
65758;BME280;52495;52.208;5.158;2023-05-24T02:59:09;102413.19;;;8.26;81.21
65758;BME280;52495;52.208;5.158;2023-05-24T03:01:37;102412.38;;;8.27;81.23
65758;BME280;52495;52.208;5.158;2023-05-24T03:04:05;102404.63;;;8.26;80.89
65758;BME280;52495;52.208;5.158;2023-05-24T03:06:32;102408.81;;;8.20;81.09
65758;BME280;52495;52.208;5.158;2023-05-24T03:09:00;102410.50;;;8.18;81.47
65758;BME280;52495;52.208;5.158;2023-05-24T03:11:30;102408.81;;;8.20;81.35
65758;BME280;52495;52.208;5.158;2023-05-24T03:13:57;102408.81;;;8.20;81.82
65758;BME280;52495;52.208;5.158;2023-05-24T03:16:24;102403.69;;;8.22;81.51
65758;BME280;52495;52.208;5.158;2023-05-24T03:18:51;102401.09;;;8.19;80.98
65758;BME280;52495;52.208;5.158;2023-05-24T03:21:20;102415.66;;;8.20;80.95
65758;BME280;52495;52.208;5.158;2023-05-24T03:23:47;102411.41;;;8.22;81.24
65758;BME280;52495;52.208;5.158;2023-05-24T03:26:16;102399.38;;;8.19;80.90
65758;BME280;52495;52.208;5.158;2023-05-24T03:28:45;102401.84;;;8.15;80.58
65758;BME280;52495;52.208;5.158;2023-05-24T03:31:12;102408.53;;;8.05;80.93
65758;BME280;52495;52.208;5.158;2023-05-24T03:33:39;102410.13;;;7.98;81.49
65758;BME280;52495;52.208;5.158;2023-05-24T03:36:06;102403.34;;;8.03;81.36
65758;BME280;52495;52.208;5.158;2023-05-24T03:38:33;102404.22;;;8.02;81.24
65758;BME280;52495;52.208;5.158;2023-05-24T03:40:59;102405.06;;;8.03;81.11
65758;BME280;52495;52.208;5.158;2023-05-24T03:43:29;102404.16;;;7.99;80.75
65758;BME280;52495;52.208;5.158;2023-05-24T03:45:59;102405.00;;;7.98;80.80
65758;BME280;52495;52.208;5.158;2023-05-24T03:48:26;102405.00;;;8.00;80.97
65758;BME280;52495;52.208;5.158;2023-05-24T03:50:53;102399.06;;;8.02;80.82
65758;BME280;52495;52.208;5.158;2023-05-24T03:53:20;102393.94;;;8.04;80.34
65758;BME280;52495;52.208;5.158;2023-05-24T03:55:47;102394.78;;;8.03;80.10
65758;BME280;52495;52.208;5.158;2023-05-24T03:58:14;102393.81;;;7.96;79.90
65758;BME280;52495;52.208;5.158;2023-05-24T04:00:42;102393.88;;;8.01;80.76
65758;BME280;52495;52.208;5.158;2023-05-24T04:03:09;102397.34;;;8.01;80.49
65758;BME280;52495;52.208;5.158;2023-05-24T04:05:37;102403.31;;;8.00;80.72
65758;BME280;52495;52.208;5.158;2023-05-24T04:08:04;102392.16;;;8.00;80.82
65758;BME280;52495;52.208;5.158;2023-05-24T04:10:31;102394.84;;;8.06;80.72
65758;BME280;52495;52.208;5.158;2023-05-24T04:12:58;102396.66;;;8.12;80.59
65758;BME280;52495;52.208;5.158;2023-05-24T04:15:25;102385.59;;;8.16;80.49
65758;BME280;52495;52.208;5.158;2023-05-24T04:17:53;102392.50;;;8.20;80.34
65758;BME280;52495;52.208;5.158;2023-05-24T04:20:21;102395.97;;;8.22;80.13
65758;BME280;52495;52.208;5.158;2023-05-24T04:22:49;102391.69;;;8.23;80.48
65758;BME280;52495;52.208;5.158;2023-05-24T04:25:16;102396.00;;;8.24;80.21
65758;BME280;52495;52.208;5.158;2023-05-24T04:27:43;102405.53;;;8.28;81.08
65758;BME280;52495;52.208;5.158;2023-05-24T04:30:13;102394.38;;;8.29;81.16
65758;BME280;52495;52.208;5.158;2023-05-24T04:32:40;102392.72;;;8.32;81.49
65758;BME280;52495;52.208;5.158;2023-05-24T04:35:10;102398.69;;;8.30;81.76
65758;BME280;52495;52.208;5.158;2023-05-24T04:37:37;102402.13;;;8.30;82.07
65758;BME280;52495;52.208;5.158;2023-05-24T04:40:06;102399.69;;;8.37;82.82
65758;BME280;52495;52.208;5.158;2023-05-24T04:42:33;102397.19;;;8.41;82.66
65758;BME280;52495;52.208;5.158;2023-05-24T04:45:00;102398.06;;;8.43;83.36
65758;BME280;52495;52.208;5.158;2023-05-24T04:47:27;102397.25;;;8.46;83.61
65758;BME280;52495;52.208;5.158;2023-05-24T04:49:54;102393.09;;;8.54;83.94
65758;BME280;52495;52.208;5.158;2023-05-24T04:52:22;102389.84;;;8.64;83.30
65758;BME280;52495;52.208;5.158;2023-05-24T04:54:49;102389.09;;;8.72;84.10
65758;BME280;52495;52.208;5.158;2023-05-24T04:57:16;102393.47;;;8.76;84.15
65758;BME280;52495;52.208;5.158;2023-05-24T04:59:43;102392.72;;;8.85;84.17
65758;BME280;52495;52.208;5.158;2023-05-24T05:02:10;102399.78;;;8.95;84.57
65758;BME280;52495;52.208;5.158;2023-05-24T05:04:36;102399.03;;;9.04;85.27
65758;BME280;52495;52.208;5.158;2023-05-24T05:07:03;102397.53;;;9.20;85.47
65758;BME280;52495;52.208;5.158;2023-05-24T05:09:32;102401.16;;;9.33;86.23
65758;BME280;52495;52.208;5.158;2023-05-24T05:11:58;102404.75;;;9.46;86.86
65758;BME280;52495;52.208;5.158;2023-05-24T05:14:25;102402.31;;;9.60;87.45
65758;BME280;52495;52.208;5.158;2023-05-24T05:16:52;102406.72;;;9.67;88.43
65758;BME280;52495;52.208;5.158;2023-05-24T05:19:18;102407.69;;;9.78;88.12
65758;BME280;52495;52.208;5.158;2023-05-24T05:21:45;102403.56;;;9.90;88.16
65758;BME280;52495;52.208;5.158;2023-05-24T05:24:13;102410.53;;;10.01;89.23
65758;BME280;52495;52.208;5.158;2023-05-24T05:26:42;102403.00;;;10.25;87.47
65758;BME280;52495;52.208;5.158;2023-05-24T05:29:08;102406.53;;;10.31;86.46
65758;BME280;52495;52.208;5.158;2023-05-24T05:31:35;102409.22;;;10.42;86.38
65758;BME280;52495;52.208;5.158;2023-05-24T05:34:02;102410.25;;;10.57;86.98
65758;BME280;52495;52.208;5.158;2023-05-24T05:36:29;102414.41;;;10.42;88.24
65758;BME280;52495;52.208;5.158;2023-05-24T05:38:56;102419.59;;;10.44;89.38
65758;BME280;52495;52.208;5.158;2023-05-24T05:41:23;102411.16;;;10.65;87.78
65758;BME280;52495;52.208;5.158;2023-05-24T05:43:51;102412.06;;;10.70;87.24
65758;BME280;52495;52.208;5.158;2023-05-24T05:46:18;102410.31;;;10.65;87.35
65758;BME280;52495;52.208;5.158;2023-05-24T05:48:46;102412.91;;;10.69;88.34
65758;BME280;52495;52.208;5.158;2023-05-24T05:51:13;102411.28;;;10.82;87.04
65758;BME280;52495;52.208;5.158;2023-05-24T05:53:40;102418.25;;;10.96;86.20
65758;BME280;52495;52.208;5.158;2023-05-24T05:56:06;102416.41;;;10.76;86.93
65758;BME280;52495;52.208;5.158;2023-05-24T05:58:33;102417.25;;;10.73;87.08
65758;BME280;52495;52.208;5.158;2023-05-24T06:01:02;102422.59;;;11.00;85.89
65758;BME280;52495;52.208;5.158;2023-05-24T06:03:29;102415.72;;;11.05;85.99
65758;BME280;52495;52.208;5.158;2023-05-24T06:05:55;102407.97;;;11.05;85.84
65758;BME280;52495;52.208;5.158;2023-05-24T06:08:22;102414.84;;;11.01;84.93
65758;BME280;52495;52.208;5.158;2023-05-24T06:10:49;102412.28;;;11.04;84.40
65758;BME280;52495;52.208;5.158;2023-05-24T06:13:16;102408.81;;;11.02;85.07
65758;BME280;52495;52.208;5.158;2023-05-24T06:15:42;102418.41;;;11.20;85.29
65758;BME280;52495;52.208;5.158;2023-05-24T06:18:11;102421.84;;;11.19;85.78
65758;BME280;52495;52.208;5.158;2023-05-24T06:20:37;102424.50;;;11.29;85.65
65758;BME280;52495;52.208;5.158;2023-05-24T06:23:04;102422.00;;;11.47;84.48
65758;BME280;52495;52.208;5.158;2023-05-24T06:25:31;102427.19;;;11.57;83.70
65758;BME280;52495;52.208;5.158;2023-05-24T06:27:58;102427.19;;;11.57;81.65
65758;BME280;52495;52.208;5.158;2023-05-24T06:30:25;102420.34;;;11.71;80.90
65758;BME280;52495;52.208;5.158;2023-05-24T06:32:52;102422.09;;;11.74;81.25
65758;BME280;52495;52.208;5.158;2023-05-24T06:35:20;102428.09;;;11.60;81.20
65758;BME280;52495;52.208;5.158;2023-05-24T06:37:47;102428.19;;;11.97;79.75
65758;BME280;52495;52.208;5.158;2023-05-24T06:40:14;102423.91;;;11.93;80.76
65758;BME280;52495;52.208;5.158;2023-05-24T06:42:40;102423.09;;;12.24;78.14
65758;BME280;52495;52.208;5.158;2023-05-24T06:45:08;102419.69;;;12.37;77.44
65758;BME280;52495;52.208;5.158;2023-05-24T06:47:35;102421.41;;;12.52;74.53
65758;BME280;52495;52.208;5.158;2023-05-24T06:50:03;102425.69;;;12.24;75.12
65758;BME280;52495;52.208;5.158;2023-05-24T06:52:31;102427.44;;;12.47;73.51
65758;BME280;52495;52.208;5.158;2023-05-24T06:54:58;102423.13;;;12.42;73.03
65758;BME280;52495;52.208;5.158;2023-05-24T06:57:25;102424.88;;;12.29;74.03
65758;BME280;52495;52.208;5.158;2023-05-24T06:59:52;102427.44;;;12.28;74.28
65758;BME280;52495;52.208;5.158;2023-05-24T07:02:18;102426.59;;;12.40;72.30
65758;BME280;52495;52.208;5.158;2023-05-24T07:04:50;102436.09;;;12.41;71.67
65758;BME280;52495;52.208;5.158;2023-05-24T07:07:19;102436.09;;;12.41;72.17
65758;BME280;52495;52.208;5.158;2023-05-24T07:09:47;102430.88;;;12.18;72.95
65758;BME280;52495;52.208;5.158;2023-05-24T07:12:14;102427.44;;;12.43;73.01
65758;BME280;52495;52.208;5.158;2023-05-24T07:14:41;102428.31;;;12.58;71.94
65758;BME280;52495;52.208;5.158;2023-05-24T07:17:08;102434.38;;;12.69;71.28
65758;BME280;52495;52.208;5.158;2023-05-24T07:19:34;102443.00;;;12.65;70.82
65758;BME280;52495;52.208;5.158;2023-05-24T07:22:01;102451.66;;;12.59;70.96
65758;BME280;52495;52.208;5.158;2023-05-24T07:24:28;102430.91;;;12.59;71.27
65758;BME280;52495;52.208;5.158;2023-05-24T07:26:56;102433.50;;;12.61;71.81
65758;BME280;52495;52.208;5.158;2023-05-24T07:29:23;102446.47;;;12.61;71.57
65758;BME280;52495;52.208;5.158;2023-05-24T07:31:50;102439.53;;;12.91;70.20
65758;BME280;52495;52.208;5.158;2023-05-24T07:34:17;102425.72;;;12.97;69.30
65758;BME280;52495;52.208;5.158;2023-05-24T07:36:45;102427.41;;;13.01;69.91
65758;BME280;52495;52.208;5.158;2023-05-24T07:39:12;102424.81;;;13.04;70.05
65758;BME280;52495;52.208;5.158;2023-05-24T07:41:40;102429.06;;;13.28;68.04
65758;BME280;52495;52.208;5.158;2023-05-24T07:44:09;102431.66;;;13.33;68.15
65758;BME280;52495;52.208;5.158;2023-05-24T07:46:36;102426.53;;;13.05;68.33
65758;BME280;52495;52.208;5.158;2023-05-24T07:49:03;102430.84;;;13.20;67.24
65758;BME280;52495;52.208;5.158;2023-05-24T07:51:29;102434.28;;;13.25;67.02
65758;BME280;52495;52.208;5.158;2023-05-24T07:53:58;102429.94;;;13.32;67.20
65758;BME280;52495;52.208;5.158;2023-05-24T07:56:25;102435.06;;;13.63;65.57
65758;BME280;52495;52.208;5.158;2023-05-24T07:58:52;102430.69;;;13.73;65.48
65758;BME280;52495;52.208;5.158;2023-05-24T08:01:25;102429.81;;;13.74;64.37
65758;BME280;52495;52.208;5.158;2023-05-24T08:03:53;102439.34;;;13.75;64.56
65758;BME280;52495;52.208;5.158;2023-05-24T08:06:20;102425.63;;;13.43;66.09
65758;BME280;52495;52.208;5.158;2023-05-24T08:08:48;102428.16;;;13.57;66.37
65758;BME280;52495;52.208;5.158;2023-05-24T08:11:15;102434.25;;;13.38;66.63
65758;BME280;52495;52.208;5.158;2023-05-24T08:13:42;102429.88;;;13.58;65.79
65758;BME280;52495;52.208;5.158;2023-05-24T08:16:09;102419.53;;;13.49;64.66
65758;BME280;52495;52.208;5.158;2023-05-24T08:18:37;102422.06;;;13.58;65.07
65758;BME280;52495;52.208;5.158;2023-05-24T08:21:04;102420.38;;;13.56;65.76
65758;BME280;52495;52.208;5.158;2023-05-24T08:23:32;102435.00;;;13.72;62.87
65758;BME280;52495;52.208;5.158;2023-05-24T08:25:59;102427.03;;;14.05;61.29
65758;BME280;52495;52.208;5.158;2023-05-24T08:28:26;102427.94;;;13.99;61.41
65758;BME280;52495;52.208;5.158;2023-05-24T08:30:53;102434.06;;;13.86;61.89
65758;BME280;52495;52.208;5.158;2023-05-24T08:33:20;102420.13;;;14.07;61.93
65758;BME280;52495;52.208;5.158;2023-05-24T08:35:49;102426.00;;;14.27;60.25
65758;BME280;52495;52.208;5.158;2023-05-24T08:38:16;102429.59;;;14.16;58.96
65758;BME280;52495;52.208;5.158;2023-05-24T08:40:43;102435.69;;;14.07;58.51
65758;BME280;52495;52.208;5.158;2023-05-24T08:43:11;102426.97;;;14.14;59.09
65758;BME280;52495;52.208;5.158;2023-05-24T08:45:38;102431.28;;;14.21;59.12
65758;BME280;52495;52.208;5.158;2023-05-24T08:48:05;102427.81;;;14.18;59.83
65758;BME280;52495;52.208;5.158;2023-05-24T08:50:33;102430.38;;;14.24;60.62
65758;BME280;52495;52.208;5.158;2023-05-24T08:53:01;102424.34;;;14.23;60.23
65758;BME280;52495;52.208;5.158;2023-05-24T08:55:31;102426.06;;;14.24;60.76
65758;BME280;52495;52.208;5.158;2023-05-24T08:57:58;102418.00;;;14.55;59.43
65758;BME280;52495;52.208;5.158;2023-05-24T09:00:26;102422.16;;;14.78;58.56
65758;BME280;52495;52.208;5.158;2023-05-24T09:02:53;102422.09;;;14.86;58.27
65758;BME280;52495;52.208;5.158;2023-05-24T09:05:20;102418.63;;;14.89;57.82
65758;BME280;52495;52.208;5.158;2023-05-24T09:07:48;102421.97;;;15.01;55.50
65758;BME280;52495;52.208;5.158;2023-05-24T09:10:19;102424.56;;;15.01;54.46
65758;BME280;52495;52.208;5.158;2023-05-24T09:12:50;102430.19;;;14.49;55.89
65758;BME280;52495;52.208;5.158;2023-05-24T09:15:19;102422.16;;;14.78;56.99
65758;BME280;52495;52.208;5.158;2023-05-24T09:17:46;102428.03;;;14.99;53.64
65758;BME280;52495;52.208;5.158;2023-05-24T09:20:13;102438.63;;;14.79;54.74
65758;BME280;52495;52.208;5.158;2023-05-24T09:22:41;102427.38;;;14.80;54.74
65758;BME280;52495;52.208;5.158;2023-05-24T09:25:09;102432.47;;;14.89;54.49
65758;BME280;52495;52.208;5.158;2023-05-24T09:27:51;102432.41;;;14.95;54.91
65758;BME280;52495;52.208;5.158;2023-05-24T09:30:18;102429.75;;;15.01;55.17
65758;BME280;52495;52.208;5.158;2023-05-24T09:32:55;102430.06;;;14.64;56.12
65758;BME280;52495;52.208;5.158;2023-05-24T09:35:22;102422.13;;;14.83;55.90
65758;BME280;52495;52.208;5.158;2023-05-24T09:37:53;102416.88;;;14.91;55.51
65758;BME280;52495;52.208;5.158;2023-05-24T09:40:22;102422.22;;;14.70;55.56
65758;BME280;52495;52.208;5.158;2023-05-24T09:43:01;102421.19;;;14.92;55.97
65758;BME280;52495;52.208;5.158;2023-05-24T09:45:28;102428.28;;;14.77;55.90
65758;BME280;52495;52.208;5.158;2023-05-24T09:47:55;102418.59;;;14.92;55.94
65758;BME280;52495;52.208;5.158;2023-05-24T09:50:22;102418.00;;;14.57;56.69
65758;BME280;52495;52.208;5.158;2023-05-24T09:52:50;102421.25;;;14.85;56.38
65758;BME280;52495;52.208;5.158;2023-05-24T09:55:19;102413.19;;;15.09;56.08
65758;BME280;52495;52.208;5.158;2023-05-24T09:57:49;102414.78;;;15.24;54.91
65758;BME280;52495;52.208;5.158;2023-05-24T10:00:22;102418.25;;;15.21;55.06
65758;BME280;52495;52.208;5.158;2023-05-24T10:02:59;102427.66;;;15.33;54.58
65758;BME280;52495;52.208;5.158;2023-05-24T10:05:27;102422.88;;;14.94;56.20
65758;BME280;52495;52.208;5.158;2023-05-24T10:07:55;102414.91;;;15.10;56.53
65758;BME280;52495;52.208;5.158;2023-05-24T10:10:25;102424.38;;;15.15;56.85
65758;BME280;52495;52.208;5.158;2023-05-24T10:12:52;102415.53;;;15.32;55.76
65758;BME280;52495;52.208;5.158;2023-05-24T10:15:22;102422.63;;;15.19;56.28
65758;BME280;52495;52.208;5.158;2023-05-24T10:17:50;102421.81;;;15.14;56.27
65758;BME280;52495;52.208;5.158;2023-05-24T10:20:16;102417.34;;;15.27;55.83
65758;BME280;52495;52.208;5.158;2023-05-24T10:22:45;102411.16;;;15.37;56.17
65758;BME280;52495;52.208;5.158;2023-05-24T10:25:14;102415.34;;;15.47;55.92
65758;BME280;52495;52.208;5.158;2023-05-24T10:27:43;102410.88;;;15.57;56.02
65758;BME280;52495;52.208;5.158;2023-05-24T10:30:15;102414.16;;;15.73;55.20
65758;BME280;52495;52.208;5.158;2023-05-24T10:32:49;102410.34;;;16.01;54.11
65758;BME280;52495;52.208;5.158;2023-05-24T10:35:17;102408.81;;;15.87;54.58
65758;BME280;52495;52.208;5.158;2023-05-24T10:37:45;102407.69;;;16.02;55.00
65758;BME280;52495;52.208;5.158;2023-05-24T10:40:16;102404.97;;;16.10;54.63
65758;BME280;52495;52.208;5.158;2023-05-24T10:42:45;102411.81;;;16.16;53.52
65758;BME280;52495;52.208;5.158;2023-05-24T10:45:31;102419.47;;;16.28;52.87
65758;BME280;52495;52.208;5.158;2023-05-24T10:48:07;102408.19;;;16.28;52.31
65758;BME280;52495;52.208;5.158;2023-05-24T10:50:35;102413.13;;;16.43;51.65
65758;BME280;52495;52.208;5.158;2023-05-24T10:53:12;102401.06;;;16.37;51.85
65758;BME280;52495;52.208;5.158;2023-05-24T10:55:52;102406.28;;;16.39;52.04
65758;BME280;52495;52.208;5.158;2023-05-24T10:58:21;102405.38;;;16.40;52.52
65758;BME280;52495;52.208;5.158;2023-05-24T11:00:50;102402.44;;;16.59;52.23
65758;BME280;52495;52.208;5.158;2023-05-24T11:03:19;102401.56;;;16.60;51.08
65758;BME280;52495;52.208;5.158;2023-05-24T11:05:53;102391.88;;;16.68;50.88
65758;BME280;52495;52.208;5.158;2023-05-24T11:08:22;102392.66;;;16.73;50.31
65758;BME280;52495;52.208;5.158;2023-05-24T11:10:50;102396.16;;;16.72;50.30
65758;BME280;52495;52.208;5.158;2023-05-24T11:13:18;102393.47;;;16.75;50.07
65758;BME280;52495;52.208;5.158;2023-05-24T11:15:51;102386.19;;;16.93;49.27
65758;BME280;52495;52.208;5.158;2023-05-24T11:18:22;102388.72;;;16.99;50.04
65758;BME280;52495;52.208;5.158;2023-05-24T11:20:49;102400.41;;;17.25;48.69
65758;BME280;52495;52.208;5.158;2023-05-24T11:23:17;102396.06;;;17.24;49.59
65758;BME280;52495;52.208;5.158;2023-05-24T11:25:46;102389.19;;;17.18;49.73
65758;BME280;52495;52.208;5.158;2023-05-24T11:28:13;102389.09;;;17.24;49.74
65758;BME280;52495;52.208;5.158;2023-05-24T11:30:40;102388.97;;;17.29;49.77
65758;BME280;52495;52.208;5.158;2023-05-24T11:33:14;102394.53;;;17.13;48.54
65758;BME280;52495;52.208;5.158;2023-05-24T11:35:43;102385.75;;;17.18;49.73
65758;BME280;52495;52.208;5.158;2023-05-24T11:38:10;102387.25;;;17.28;49.49
65758;BME280;52495;52.208;5.158;2023-05-24T11:40:40;102389.53;;;17.43;48.24
65758;BME280;52495;52.208;5.158;2023-05-24T11:43:11;102388.19;;;17.25;48.73
65758;BME280;52495;52.208;5.158;2023-05-24T11:45:40;102390.25;;;17.09;49.66
65758;BME280;52495;52.208;5.158;2023-05-24T11:48:07;102391.03;;;17.14;49.75
65758;BME280;52495;52.208;5.158;2023-05-24T11:50:38;102397.13;;;17.15;49.55
65758;BME280;52495;52.208;5.158;2023-05-24T11:53:08;102387.34;;;17.25;49.80
65758;BME280;52495;52.208;5.158;2023-05-24T11:55:36;102389.25;;;17.17;50.14
65758;BME280;52495;52.208;5.158;2023-05-24T11:58:06;102395.19;;;17.25;49.29
65758;BME280;52495;52.208;5.158;2023-05-24T12:00:37;102392.56;;;17.25;49.79
65758;BME280;52495;52.208;5.158;2023-05-24T12:03:04;102397.91;;;17.19;50.37
65758;BME280;52495;52.208;5.158;2023-05-24T12:05:34;102398.06;;;17.11;50.04
65758;BME280;52495;52.208;5.158;2023-05-24T12:08:03;102388.94;;;16.85;50.25
65758;BME280;52495;52.208;5.158;2023-05-24T12:10:34;102387.63;;;17.09;49.59
65758;BME280;52495;52.208;5.158;2023-05-24T12:13:02;102386.91;;;17.03;50.32
65758;BME280;52495;52.208;5.158;2023-05-24T12:15:30;102385.59;;;17.25;49.98
65758;BME280;52495;52.208;5.158;2023-05-24T12:17:57;102381.97;;;17.33;49.26
65758;BME280;52495;52.208;5.158;2023-05-24T12:20:26;102380.53;;;17.18;49.09
65758;BME280;52495;52.208;5.158;2023-05-24T12:22:54;102377.44;;;16.97;50.21
65758;BME280;52495;52.208;5.158;2023-05-24T12:25:22;102371.59;;;17.28;50.03
65758;BME280;52495;52.208;5.158;2023-05-24T12:27:54;102382.97;;;17.66;48.66
65758;BME280;52495;52.208;5.158;2023-05-24T12:30:21;102375.38;;;17.55;48.08
65758;BME280;52495;52.208;5.158;2023-05-24T12:32:49;102378.31;;;17.40;48.25
65758;BME280;52495;52.208;5.158;2023-05-24T12:35:18;102374.81;;;17.41;47.92
65758;BME280;52495;52.208;5.158;2023-05-24T12:37:46;102374.78;;;17.42;46.65
65758;BME280;52495;52.208;5.158;2023-05-24T12:40:14;102368.81;;;17.36;47.14
65758;BME280;52495;52.208;5.158;2023-05-24T12:42:43;102375.44;;;17.52;46.27
65758;BME280;52495;52.208;5.158;2023-05-24T12:45:12;102378.13;;;17.49;46.59
65758;BME280;52495;52.208;5.158;2023-05-24T12:47:39;102372.28;;;17.38;46.74
65758;BME280;52495;52.208;5.158;2023-05-24T12:50:07;102380.09;;;17.39;46.03
65758;BME280;52495;52.208;5.158;2023-05-24T12:52:34;102382.03;;;17.28;46.52
65758;BME280;52495;52.208;5.158;2023-05-24T12:55:01;102384.78;;;17.22;46.83
65758;BME280;52495;52.208;5.158;2023-05-24T12:57:28;102386.25;;;17.35;46.92
65758;BME280;52495;52.208;5.158;2023-05-24T12:59:55;102389.53;;;17.43;46.84
65758;BME280;52495;52.208;5.158;2023-05-24T13:02:24;102390.06;;;17.19;46.25